sensor_id;sensor_type;location;lat;lon;timestamp;temperature;humidity
2995;DHT22;35277;49.890;8.222;2023-05-07T00:00:32;24.70;68.00
2995;DHT22;35277;49.890;8.222;2023-05-07T00:03:00;24.70;68.00
2995;DHT22;35277;49.890;8.222;2023-05-07T00:05:30;24.70;68.00
2995;DHT22;35277;49.890;8.222;2023-05-07T00:07:58;24.80;68.10
2995;DHT22;35277;49.890;8.222;2023-05-07T00:10:26;24.70;68.00
2995;DHT22;35277;49.890;8.222;2023-05-07T00:12:53;24.70;68.00
2995;DHT22;35277;49.890;8.222;2023-05-07T00:15:22;24.70;68.00
2995;DHT22;35277;49.890;8.222;2023-05-07T00:17:49;24.70;68.00
2995;DHT22;35277;49.890;8.222;2023-05-07T00:20:17;24.70;68.00
2995;DHT22;35277;49.890;8.222;2023-05-07T00:22:46;24.70;68.00
2995;DHT22;35277;49.890;8.222;2023-05-07T00:25:14;24.70;68.00
2995;DHT22;35277;49.890;8.222;2023-05-07T00:27:42;24.70;68.00
2995;DHT22;35277;49.890;8.222;2023-05-07T00:30:11;24.70;68.00
2995;DHT22;35277;49.890;8.222;2023-05-07T00:32:39;24.70;68.00
2995;DHT22;35277;49.890;8.222;2023-05-07T00:35:08;24.70;68.00
2995;DHT22;35277;49.890;8.222;2023-05-07T00:37:36;24.70;68.00
2995;DHT22;35277;49.890;8.222;2023-05-07T00:40:07;24.70;68.00
2995;DHT22;35277;49.890;8.222;2023-05-07T00:42:35;24.70;68.00
2995;DHT22;35277;49.890;8.222;2023-05-07T00:45:04;24.70;68.00
2995;DHT22;35277;49.890;8.222;2023-05-07T00:47:34;24.70;68.00
2995;DHT22;35277;49.890;8.222;2023-05-07T00:50:03;24.70;68.00
2995;DHT22;35277;49.890;8.222;2023-05-07T00:52:30;24.70;68.00
2995;DHT22;35277;49.890;8.222;2023-05-07T00:55:00;24.70;68.00
2995;DHT22;35277;49.890;8.222;2023-05-07T00:57:36;24.70;68.00
2995;DHT22;35277;49.890;8.222;2023-05-07T01:00:06;24.70;68.10
2995;DHT22;35277;49.890;8.222;2023-05-07T01:02:36;24.70;68.10
2995;DHT22;35277;49.890;8.222;2023-05-07T01:05:05;24.70;68.10
2995;DHT22;35277;49.890;8.222;2023-05-07T01:07:34;24.70;68.10
2995;DHT22;35277;49.890;8.222;2023-05-07T01:10:03;24.70;68.10
2995;DHT22;35277;49.890;8.222;2023-05-07T01:12:34;24.70;68.10
2995;DHT22;35277;49.890;8.222;2023-05-07T01:15:02;24.70;68.10
2995;DHT22;35277;49.890;8.222;2023-05-07T01:17:33;24.70;68.10
2995;DHT22;35277;49.890;8.222;2023-05-07T01:20:02;24.70;68.10
2995;DHT22;35277;49.890;8.222;2023-05-07T01:22:34;24.70;68.10
2995;DHT22;35277;49.890;8.222;2023-05-07T01:25:04;24.70;68.10
2995;DHT22;35277;49.890;8.222;2023-05-07T01:27:32;24.70;68.10
2995;DHT22;35277;49.890;8.222;2023-05-07T01:30:02;24.70;68.10
2995;DHT22;35277;49.890;8.222;2023-05-07T01:32:43;24.70;68.10
2995;DHT22;35277;49.890;8.222;2023-05-07T01:35:29;24.70;68.10
2995;DHT22;35277;49.890;8.222;2023-05-07T01:38:00;24.70;68.10
2995;DHT22;35277;49.890;8.222;2023-05-07T01:40:29;24.70;68.10
2995;DHT22;35277;49.890;8.222;2023-05-07T01:42:57;24.70;68.10
2995;DHT22;35277;49.890;8.222;2023-05-07T01:45:25;24.70;68.10
2995;DHT22;35277;49.890;8.222;2023-05-07T01:47:53;24.70;68.10
2995;DHT22;35277;49.890;8.222;2023-05-07T01:50:21;24.70;68.10
2995;DHT22;35277;49.890;8.222;2023-05-07T01:52:50;24.60;68.10
2995;DHT22;35277;49.890;8.222;2023-05-07T01:55:20;24.70;68.20
2995;DHT22;35277;49.890;8.222;2023-05-07T01:57:48;24.70;68.20
2995;DHT22;35277;49.890;8.222;2023-05-07T02:00:16;24.70;68.20
2995;DHT22;35277;49.890;8.222;2023-05-07T02:02:45;24.70;68.20
2995;DHT22;35277;49.890;8.222;2023-05-07T02:05:24;24.70;68.20
2995;DHT22;35277;49.890;8.222;2023-05-07T02:07:58;24.70;68.20
2995;DHT22;35277;49.890;8.222;2023-05-07T02:10:29;24.70;68.20
2995;DHT22;35277;49.890;8.222;2023-05-07T02:12:58;24.70;68.20
2995;DHT22;35277;49.890;8.222;2023-05-07T02:15:26;24.70;68.20
2995;DHT22;35277;49.890;8.222;2023-05-07T02:18:00;24.70;68.20
2995;DHT22;35277;49.890;8.222;2023-05-07T02:20:28;24.70;68.30
2995;DHT22;35277;49.890;8.222;2023-05-07T02:22:56;24.70;68.20
2995;DHT22;35277;49.890;8.222;2023-05-07T02:25:26;24.70;68.30
2995;DHT22;35277;49.890;8.222;2023-05-07T02:27:55;24.70;68.30
2995;DHT22;35277;49.890;8.222;2023-05-07T02:30:33;24.70;68.20
2995;DHT22;35277;49.890;8.222;2023-05-07T02:33:01;24.70;68.30
2995;DHT22;35277;49.890;8.222;2023-05-07T02:35:29;24.70;68.30
2995;DHT22;35277;49.890;8.222;2023-05-07T02:37:57;24.70;68.30
2995;DHT22;35277;49.890;8.222;2023-05-07T02:40:25;24.70;68.30
2995;DHT22;35277;49.890;8.222;2023-05-07T02:42:55;24.70;68.30
2995;DHT22;35277;49.890;8.222;2023-05-07T02:45:23;24.70;68.30
2995;DHT22;35277;49.890;8.222;2023-05-07T02:47:52;24.70;68.30
2995;DHT22;35277;49.890;8.222;2023-05-07T02:50:21;24.70;68.30
2995;DHT22;35277;49.890;8.222;2023-05-07T02:52:49;24.70;68.30
2995;DHT22;35277;49.890;8.222;2023-05-07T02:55:17;24.70;68.30
2995;DHT22;35277;49.890;8.222;2023-05-07T02:57:45;24.60;68.20
2995;DHT22;35277;49.890;8.222;2023-05-07T03:00:16;24.70;68.30
2995;DHT22;35277;49.890;8.222;2023-05-07T03:03:04;24.60;68.30
2995;DHT22;35277;49.890;8.222;2023-05-07T03:05:32;24.70;68.40
2995;DHT22;35277;49.890;8.222;2023-05-07T03:08:00;24.60;68.30
2995;DHT22;35277;49.890;8.222;2023-05-07T03:10:27;24.60;68.30
2995;DHT22;35277;49.890;8.222;2023-05-07T03:12:55;24.60;68.30
2995;DHT22;35277;49.890;8.222;2023-05-07T03:15:25;24.60;68.30
2995;DHT22;35277;49.890;8.222;2023-05-07T03:17:52;24.60;68.30
2995;DHT22;35277;49.890;8.222;2023-05-07T03:20:21;24.60;68.30
2995;DHT22;35277;49.890;8.222;2023-05-07T03:22:49;24.60;68.30
2995;DHT22;35277;49.890;8.222;2023-05-07T03:25:17;24.60;68.30
2995;DHT22;35277;49.890;8.222;2023-05-07T03:27:44;24.60;68.30
2995;DHT22;35277;49.890;8.222;2023-05-07T03:30:13;24.60;68.30
2995;DHT22;35277;49.890;8.222;2023-05-07T03:32:43;24.60;68.40
2995;DHT22;35277;49.890;8.222;2023-05-07T03:35:11;24.60;68.40
2995;DHT22;35277;49.890;8.222;2023-05-07T03:37:40;24.60;68.40
2995;DHT22;35277;49.890;8.222;2023-05-07T03:40:10;24.60;68.30
2995;DHT22;35277;49.890;8.222;2023-05-07T03:42:52;24.60;68.30
2995;DHT22;35277;49.890;8.222;2023-05-07T03:45:24;24.60;68.40
2995;DHT22;35277;49.890;8.222;2023-05-07T03:48:05;24.60;68.40
2995;DHT22;35277;49.890;8.222;2023-05-07T03:50:33;24.60;68.40
2995;DHT22;35277;49.890;8.222;2023-05-07T03:53:01;24.60;68.40
2995;DHT22;35277;49.890;8.222;2023-05-07T03:55:30;24.60;68.40
2995;DHT22;35277;49.890;8.222;2023-05-07T03:57:59;24.60;68.40
2995;DHT22;35277;49.890;8.222;2023-05-07T04:00:28;24.60;68.40
2995;DHT22;35277;49.890;8.222;2023-05-07T04:03:00;24.60;68.40
2995;DHT22;35277;49.890;8.222;2023-05-07T04:05:31;24.60;68.40
2995;DHT22;35277;49.890;8.222;2023-05-07T04:08:02;24.60;68.40
2995;DHT22;35277;49.890;8.222;2023-05-07T04:10:39;24.60;68.40
2995;DHT22;35277;49.890;8.222;2023-05-07T04:13:09;24.60;68.30
2995;DHT22;35277;49.890;8.222;2023-05-07T04:15:37;24.60;68.30
2995;DHT22;35277;49.890;8.222;2023-05-07T04:18:09;24.60;68.30
2995;DHT22;35277;49.890;8.222;2023-05-07T04:20:39;24.60;68.30
2995;DHT22;35277;49.890;8.222;2023-05-07T04:23:11;24.60;68.30
2995;DHT22;35277;49.890;8.222;2023-05-07T04:25:40;24.60;68.30
2995;DHT22;35277;49.890;8.222;2023-05-07T04:28:17;24.60;68.30
2995;DHT22;35277;49.890;8.222;2023-05-07T04:30:46;24.60;68.30
2995;DHT22;35277;49.890;8.222;2023-05-07T04:33:14;24.60;68.30
2995;DHT22;35277;49.890;8.222;2023-05-07T04:35:45;24.60;68.20
2995;DHT22;35277;49.890;8.222;2023-05-07T04:38:13;24.60;68.20
2995;DHT22;35277;49.890;8.222;2023-05-07T04:40:42;24.60;68.20
2995;DHT22;35277;49.890;8.222;2023-05-07T04:43:14;24.60;68.20
2995;DHT22;35277;49.890;8.222;2023-05-07T04:45:47;24.60;68.20
2995;DHT22;35277;49.890;8.222;2023-05-07T04:48:16;24.60;68.20
2995;DHT22;35277;49.890;8.222;2023-05-07T04:50:48;24.60;68.20
2995;DHT22;35277;49.890;8.222;2023-05-07T04:53:18;24.60;68.20
2995;DHT22;35277;49.890;8.222;2023-05-07T04:55:47;24.60;68.20
2995;DHT22;35277;49.890;8.222;2023-05-07T04:58:16;24.60;68.30
2995;DHT22;35277;49.890;8.222;2023-05-07T05:00:46;24.60;68.60
2995;DHT22;35277;49.890;8.222;2023-05-07T05:03:14;24.60;68.60
2995;DHT22;35277;49.890;8.222;2023-05-07T05:05:42;24.60;68.70
2995;DHT22;35277;49.890;8.222;2023-05-07T05:08:11;24.60;68.90
2995;DHT22;35277;49.890;8.222;2023-05-07T05:10:41;24.60;69.10
2995;DHT22;35277;49.890;8.222;2023-05-07T05:13:10;24.70;69.10
2995;DHT22;35277;49.890;8.222;2023-05-07T05:15:40;24.70;69.10
2995;DHT22;35277;49.890;8.222;2023-05-07T05:18:08;24.70;69.20
2995;DHT22;35277;49.890;8.222;2023-05-07T05:20:38;24.70;69.20
2995;DHT22;35277;49.890;8.222;2023-05-07T05:23:07;24.70;69.20
2995;DHT22;35277;49.890;8.222;2023-05-07T05:25:37;24.70;69.20
2995;DHT22;35277;49.890;8.222;2023-05-07T05:28:09;24.70;69.20
2995;DHT22;35277;49.890;8.222;2023-05-07T05:30:37;24.70;69.20
2995;DHT22;35277;49.890;8.222;2023-05-07T05:33:05;24.70;69.20
2995;DHT22;35277;49.890;8.222;2023-05-07T05:35:33;24.70;69.20
2995;DHT22;35277;49.890;8.222;2023-05-07T05:38:04;24.70;69.10
2995;DHT22;35277;49.890;8.222;2023-05-07T05:40:33;24.70;69.10
2995;DHT22;35277;49.890;8.222;2023-05-07T05:43:02;24.70;69.10
2995;DHT22;35277;49.890;8.222;2023-05-07T05:45:30;24.70;69.10
2995;DHT22;35277;49.890;8.222;2023-05-07T05:47:58;24.70;69.10
2995;DHT22;35277;49.890;8.222;2023-05-07T05:50:28;24.70;69.10
2995;DHT22;35277;49.890;8.222;2023-05-07T05:52:56;24.70;69.10
2995;DHT22;35277;49.890;8.222;2023-05-07T05:55:27;24.70;69.00
2995;DHT22;35277;49.890;8.222;2023-05-07T05:57:55;24.70;69.00
2995;DHT22;35277;49.890;8.222;2023-05-07T06:00:24;24.70;69.00
2995;DHT22;35277;49.890;8.222;2023-05-07T06:03:01;24.70;69.00
2995;DHT22;35277;49.890;8.222;2023-05-07T06:05:29;24.70;69.00
2995;DHT22;35277;49.890;8.222;2023-05-07T06:07:57;24.70;68.90
2995;DHT22;35277;49.890;8.222;2023-05-07T06:10:29;24.70;69.00
2995;DHT22;35277;49.890;8.222;2023-05-07T06:12:59;24.70;68.90
2995;DHT22;35277;49.890;8.222;2023-05-07T06:15:29;24.70;68.90
2995;DHT22;35277;49.890;8.222;2023-05-07T06:18:02;24.70;68.90
2995;DHT22;35277;49.890;8.222;2023-05-07T06:20:30;24.70;68.80
2995;DHT22;35277;49.890;8.222;2023-05-07T06:23:00;24.70;68.80
2995;DHT22;35277;49.890;8.222;2023-05-07T06:25:29;24.70;68.80
2995;DHT22;35277;49.890;8.222;2023-05-07T06:27:57;24.70;68.80
2995;DHT22;35277;49.890;8.222;2023-05-07T06:30:26;24.70;68.80
2995;DHT22;35277;49.890;8.222;2023-05-07T06:32:56;24.70;68.70
2995;DHT22;35277;49.890;8.222;2023-05-07T06:35:25;24.70;68.70
2995;DHT22;35277;49.890;8.222;2023-05-07T06:37:53;24.70;68.70
2995;DHT22;35277;49.890;8.222;2023-05-07T06:40:24;24.70;68.70
2995;DHT22;35277;49.890;8.222;2023-05-07T06:42:52;24.70;68.70
2995;DHT22;35277;49.890;8.222;2023-05-07T06:45:46;24.70;68.70
2995;DHT22;35277;49.890;8.222;2023-05-07T06:48:15;24.70;68.60
2995;DHT22;35277;49.890;8.222;2023-05-07T06:50:59;24.70;68.60
2995;DHT22;35277;49.890;8.222;2023-05-07T06:53:30;24.70;68.60
2995;DHT22;35277;49.890;8.222;2023-05-07T06:56:00;24.70;68.60
2995;DHT22;35277;49.890;8.222;2023-05-07T06:58:28;24.70;68.60
2995;DHT22;35277;49.890;8.222;2023-05-07T07:00:56;24.70;68.60
2995;DHT22;35277;49.890;8.222;2023-05-07T07:03:25;24.70;68.60
2995;DHT22;35277;49.890;8.222;2023-05-07T07:05:54;24.70;68.60
2995;DHT22;35277;49.890;8.222;2023-05-07T07:08:23;24.70;68.60
2995;DHT22;35277;49.890;8.222;2023-05-07T07:10:51;24.80;68.70
2995;DHT22;35277;49.890;8.222;2023-05-07T07:13:19;24.70;68.50
2995;DHT22;35277;49.890;8.222;2023-05-07T07:15:47;24.70;68.50
2995;DHT22;35277;49.890;8.222;2023-05-07T07:18:17;24.80;68.60
2995;DHT22;35277;49.890;8.222;2023-05-07T07:20:48;24.70;68.60
2995;DHT22;35277;49.890;8.222;2023-05-07T07:23:16;24.70;68.50
2995;DHT22;35277;49.890;8.222;2023-05-07T07:25:44;24.80;68.70
2995;DHT22;35277;49.890;8.222;2023-05-07T07:28:13;24.80;68.60
2995;DHT22;35277;49.890;8.222;2023-05-07T07:30:41;24.70;68.50
2995;DHT22;35277;49.890;8.222;2023-05-07T07:33:09;24.70;68.50
2995;DHT22;35277;49.890;8.222;2023-05-07T07:35:38;24.80;68.60
2995;DHT22;35277;49.890;8.222;2023-05-07T07:38:07;24.80;68.60
2995;DHT22;35277;49.890;8.222;2023-05-07T07:40:35;24.80;68.60
2995;DHT22;35277;49.890;8.222;2023-05-07T07:43:05;24.80;68.50
2995;DHT22;35277;49.890;8.222;2023-05-07T07:45:34;24.80;68.50
2995;DHT22;35277;49.890;8.222;2023-05-07T07:48:02;24.70;68.40
2995;DHT22;35277;49.890;8.222;2023-05-07T07:50:34;24.80;68.50
2995;DHT22;35277;49.890;8.222;2023-05-07T07:53:14;24.80;68.50
2995;DHT22;35277;49.890;8.222;2023-05-07T07:55:42;24.80;68.50
2995;DHT22;35277;49.890;8.222;2023-05-07T07:58:13;24.80;68.60
2995;DHT22;35277;49.890;8.222;2023-05-07T08:00:41;24.80;68.50
2995;DHT22;35277;49.890;8.222;2023-05-07T08:03:10;24.80;68.60
2995;DHT22;35277;49.890;8.222;2023-05-07T08:05:42;24.80;68.50
2995;DHT22;35277;49.890;8.222;2023-05-07T08:08:10;24.80;68.60
2995;DHT22;35277;49.890;8.222;2023-05-07T08:10:41;24.80;68.60
2995;DHT22;35277;49.890;8.222;2023-05-07T08:13:17;24.80;68.60
2995;DHT22;35277;49.890;8.222;2023-05-07T08:15:46;24.80;68.60
2995;DHT22;35277;49.890;8.222;2023-05-07T08:18:14;24.80;68.60
2995;DHT22;35277;49.890;8.222;2023-05-07T08:20:44;24.80;68.70
2995;DHT22;35277;49.890;8.222;2023-05-07T08:23:16;24.80;69.50
2995;DHT22;35277;49.890;8.222;2023-05-07T08:25:46;24.80;68.70
2995;DHT22;35277;49.890;8.222;2023-05-07T08:28:15;24.80;68.70
2995;DHT22;35277;49.890;8.222;2023-05-07T08:30:43;24.80;68.80
2995;DHT22;35277;49.890;8.222;2023-05-07T08:33:11;24.90;68.80
2995;DHT22;35277;49.890;8.222;2023-05-07T08:35:39;24.90;68.90
2995;DHT22;35277;49.890;8.222;2023-05-07T08:38:08;24.90;68.80
2995;DHT22;35277;49.890;8.222;2023-05-07T08:40:38;24.90;68.80
2995;DHT22;35277;49.890;8.222;2023-05-07T08:43:14;24.90;68.80
2995;DHT22;35277;49.890;8.222;2023-05-07T08:45:45;24.90;68.80
2995;DHT22;35277;49.890;8.222;2023-05-07T08:48:16;24.90;68.80
2995;DHT22;35277;49.890;8.222;2023-05-07T08:50:51;24.90;68.80
2995;DHT22;35277;49.890;8.222;2023-05-07T08:53:20;24.90;68.80
2995;DHT22;35277;49.890;8.222;2023-05-07T08:55:49;24.90;68.90
2995;DHT22;35277;49.890;8.222;2023-05-07T08:58:19;24.90;68.80
2995;DHT22;35277;49.890;8.222;2023-05-07T09:00:47;24.90;68.80
2995;DHT22;35277;49.890;8.222;2023-05-07T09:03:16;24.90;68.80
2995;DHT22;35277;49.890;8.222;2023-05-07T09:05:47;24.90;68.80
2995;DHT22;35277;49.890;8.222;2023-05-07T09:08:17;24.90;68.80
2995;DHT22;35277;49.890;8.222;2023-05-07T09:10:48;24.90;68.80
2995;DHT22;35277;49.890;8.222;2023-05-07T09:13:18;25.00;68.90
2995;DHT22;35277;49.890;8.222;2023-05-07T09:15:46;25.00;68.90
2995;DHT22;35277;49.890;8.222;2023-05-07T09:18:14;25.00;68.90
2995;DHT22;35277;49.890;8.222;2023-05-07T09:20:45;24.90;68.70
2995;DHT22;35277;49.890;8.222;2023-05-07T09:23:14;25.00;68.80
2995;DHT22;35277;49.890;8.222;2023-05-07T09:25:43;25.00;68.80
2995;DHT22;35277;49.890;8.222;2023-05-07T09:28:19;25.00;68.80
2995;DHT22;35277;49.890;8.222;2023-05-07T09:30:47;24.90;68.70
2995;DHT22;35277;49.890;8.222;2023-05-07T09:33:15;25.00;68.80
2995;DHT22;35277;49.890;8.222;2023-05-07T09:35:51;25.00;68.80
2995;DHT22;35277;49.890;8.222;2023-05-07T09:38:21;25.00;68.80
2995;DHT22;35277;49.890;8.222;2023-05-07T09:41:02;25.00;68.80
2995;DHT22;35277;49.890;8.222;2023-05-07T09:43:35;25.00;68.80
2995;DHT22;35277;49.890;8.222;2023-05-07T09:46:07;25.00;68.80
2995;DHT22;35277;49.890;8.222;2023-05-07T09:48:37;25.00;69.60
2995;DHT22;35277;49.890;8.222;2023-05-07T09:51:22;25.00;68.80
2995;DHT22;35277;49.890;8.222;2023-05-07T09:53:54;25.00;68.80
2995;DHT22;35277;49.890;8.222;2023-05-07T09:56:24;25.00;68.80
2995;DHT22;35277;49.890;8.222;2023-05-07T09:58:56;25.00;68.80
2995;DHT22;35277;49.890;8.222;2023-05-07T10:01:25;25.00;68.70
2995;DHT22;35277;49.890;8.222;2023-05-07T10:03:53;25.00;68.70
2995;DHT22;35277;49.890;8.222;2023-05-07T10:06:23;25.00;68.80
2995;DHT22;35277;49.890;8.222;2023-05-07T10:08:52;25.00;68.70
2995;DHT22;35277;49.890;8.222;2023-05-07T10:11:21;25.00;68.70
2995;DHT22;35277;49.890;8.222;2023-05-07T10:13:52;25.00;68.70
2995;DHT22;35277;49.890;8.222;2023-05-07T10:16:22;25.10;68.80
2995;DHT22;35277;49.890;8.222;2023-05-07T10:18:51;25.10;68.80
2995;DHT22;35277;49.890;8.222;2023-05-07T10:21:23;25.10;68.80
2995;DHT22;35277;49.890;8.222;2023-05-07T10:23:59;25.10;68.80
2995;DHT22;35277;49.890;8.222;2023-05-07T10:26:30;25.10;68.80
2995;DHT22;35277;49.890;8.222;2023-05-07T10:29:03;25.10;68.80
2995;DHT22;35277;49.890;8.222;2023-05-07T10:31:52;25.10;68.80
2995;DHT22;35277;49.890;8.222;2023-05-07T10:34:25;25.10;68.80
2995;DHT22;35277;49.890;8.222;2023-05-07T10:36:54;25.10;68.80
2995;DHT22;35277;49.890;8.222;2023-05-07T10:39:25;25.20;68.90
2995;DHT22;35277;49.890;8.222;2023-05-07T10:41:53;25.20;68.90
2995;DHT22;35277;49.890;8.222;2023-05-07T10:44:28;25.20;68.90
2995;DHT22;35277;49.890;8.222;2023-05-07T10:47:07;25.20;68.90
2995;DHT22;35277;49.890;8.222;2023-05-07T10:50:23;25.20;68.90
2995;DHT22;35277;49.890;8.222;2023-05-07T10:53:22;25.20;68.90
2995;DHT22;35277;49.890;8.222;2023-05-07T10:56:26;25.20;68.90
2995;DHT22;35277;49.890;8.222;2023-05-07T10:59:31;25.20;68.90
2995;DHT22;35277;49.890;8.222;2023-05-07T11:02:08;25.30;68.90
2995;DHT22;35277;49.890;8.222;2023-05-07T11:05:19;25.30;68.90
2995;DHT22;35277;49.890;8.222;2023-05-07T11:07:55;25.30;68.90
2995;DHT22;35277;49.890;8.222;2023-05-07T11:10:48;25.30;68.90
2995;DHT22;35277;49.890;8.222;2023-05-07T11:13:41;25.30;68.90
2995;DHT22;35277;49.890;8.222;2023-05-07T11:16:18;25.30;68.90
2995;DHT22;35277;49.890;8.222;2023-05-07T11:18:53;25.30;68.90
2995;DHT22;35277;49.890;8.222;2023-05-07T11:21:35;25.30;68.90
2995;DHT22;35277;49.890;8.222;2023-05-07T11:24:18;25.30;68.90
2995;DHT22;35277;49.890;8.222;2023-05-07T11:26:55;25.30;68.90
2995;DHT22;35277;49.890;8.222;2023-05-07T11:29:25;25.30;68.90
2995;DHT22;35277;49.890;8.222;2023-05-07T11:31:58;25.30;69.00
2995;DHT22;35277;49.890;8.222;2023-05-07T11:34:33;25.30;68.90
2995;DHT22;35277;49.890;8.222;2023-05-07T11:37:01;25.30;68.90
2995;DHT22;35277;49.890;8.222;2023-05-07T11:40:05;25.30;68.90
2995;DHT22;35277;49.890;8.222;2023-05-07T11:42:35;25.30;69.00
2995;DHT22;35277;49.890;8.222;2023-05-07T11:45:05;25.30;68.90
2995;DHT22;35277;49.890;8.222;2023-05-07T11:47:33;25.30;68.90
2995;DHT22;35277;49.890;8.222;2023-05-07T11:50:04;25.30;69.00
2995;DHT22;35277;49.890;8.222;2023-05-07T11:52:32;25.30;69.00
2995;DHT22;35277;49.890;8.222;2023-05-07T11:55:01;25.30;68.90
2995;DHT22;35277;49.890;8.222;2023-05-07T11:57:33;25.40;69.00
2995;DHT22;35277;49.890;8.222;2023-05-07T12:00:02;25.40;69.00
2995;DHT22;35277;49.890;8.222;2023-05-07T12:02:40;25.30;68.90
2995;DHT22;35277;49.890;8.222;2023-05-07T12:05:09;25.40;69.00
2995;DHT22;35277;49.890;8.222;2023-05-07T12:07:37;25.40;69.00
2995;DHT22;35277;49.890;8.222;2023-05-07T12:10:05;25.40;69.00
2995;DHT22;35277;49.890;8.222;2023-05-07T12:12:39;25.40;69.00
2995;DHT22;35277;49.890;8.222;2023-05-07T12:15:08;25.40;69.00
2995;DHT22;35277;49.890;8.222;2023-05-07T12:17:37;25.40;69.00
2995;DHT22;35277;49.890;8.222;2023-05-07T12:20:06;25.40;69.00
2995;DHT22;35277;49.890;8.222;2023-05-07T12:22:35;25.40;69.00
2995;DHT22;35277;49.890;8.222;2023-05-07T12:25:04;25.50;69.10
2995;DHT22;35277;49.890;8.222;2023-05-07T12:27:32;25.40;69.00
2995;DHT22;35277;49.890;8.222;2023-05-07T12:30:01;25.40;69.00
2995;DHT22;35277;49.890;8.222;2023-05-07T12:32:29;25.50;69.10
2995;DHT22;35277;49.890;8.222;2023-05-07T12:34:57;25.40;69.00
2995;DHT22;35277;49.890;8.222;2023-05-07T12:37:25;25.50;69.10
2995;DHT22;35277;49.890;8.222;2023-05-07T12:40:04;25.50;69.00
2995;DHT22;35277;49.890;8.222;2023-05-07T12:42:35;25.50;69.00
2995;DHT22;35277;49.890;8.222;2023-05-07T12:45:12;25.50;69.00
2995;DHT22;35277;49.890;8.222;2023-05-07T12:47:43;25.50;69.10
2995;DHT22;35277;49.890;8.222;2023-05-07T12:50:12;25.50;69.00
2995;DHT22;35277;49.890;8.222;2023-05-07T12:52:40;25.50;69.10
2995;DHT22;35277;49.890;8.222;2023-05-07T12:55:09;25.50;69.00
2995;DHT22;35277;49.890;8.222;2023-05-07T12:57:41;25.50;69.00
2995;DHT22;35277;49.890;8.222;2023-05-07T13:00:11;25.50;69.00
2995;DHT22;35277;49.890;8.222;2023-05-07T13:02:40;25.50;69.00
2995;DHT22;35277;49.890;8.222;2023-05-07T13:05:11;25.50;69.00
2995;DHT22;35277;49.890;8.222;2023-05-07T13:07:39;25.50;68.90
2995;DHT22;35277;49.890;8.222;2023-05-07T13:10:09;25.50;68.90
2995;DHT22;35277;49.890;8.222;2023-05-07T13:12:36;25.50;68.90
2995;DHT22;35277;49.890;8.222;2023-05-07T13:15:05;25.50;68.90
2995;DHT22;35277;49.890;8.222;2023-05-07T13:17:34;25.60;68.90
2995;DHT22;35277;49.890;8.222;2023-05-07T13:20:03;25.60;69.00
2995;DHT22;35277;49.890;8.222;2023-05-07T13:22:32;25.60;68.90
2995;DHT22;35277;49.890;8.222;2023-05-07T13:24:59;25.60;68.90
2995;DHT22;35277;49.890;8.222;2023-05-07T13:27:27;25.60;68.80
2995;DHT22;35277;49.890;8.222;2023-05-07T13:29:57;25.60;68.80
2995;DHT22;35277;49.890;8.222;2023-05-07T13:32:25;25.60;68.80
2995;DHT22;35277;49.890;8.222;2023-05-07T13:34:54;25.60;68.70
2995;DHT22;35277;49.890;8.222;2023-05-07T13:37:22;25.60;68.70
2995;DHT22;35277;49.890;8.222;2023-05-07T13:39:49;25.60;68.70
2995;DHT22;35277;49.890;8.222;2023-05-07T13:42:17;25.60;68.70
2995;DHT22;35277;49.890;8.222;2023-05-07T13:44:45;25.60;68.70
2995;DHT22;35277;49.890;8.222;2023-05-07T13:47:13;25.60;68.70
2995;DHT22;35277;49.890;8.222;2023-05-07T13:49:41;25.60;68.70
2995;DHT22;35277;49.890;8.222;2023-05-07T13:52:10;25.50;68.60
2995;DHT22;35277;49.890;8.222;2023-05-07T13:54:38;25.50;68.70
2995;DHT22;35277;49.890;8.222;2023-05-07T13:57:06;25.50;68.60
2995;DHT22;35277;49.890;8.222;2023-05-07T13:59:34;25.50;68.70
2995;DHT22;35277;49.890;8.222;2023-05-07T14:02:02;25.50;68.70
2995;DHT22;35277;49.890;8.222;2023-05-07T14:04:30;25.50;69.50
2995;DHT22;35277;49.890;8.222;2023-05-07T14:06:58;25.50;68.70
2995;DHT22;35277;49.890;8.222;2023-05-07T14:09:27;25.50;68.70
2995;DHT22;35277;49.890;8.222;2023-05-07T14:11:55;25.50;68.70
2995;DHT22;35277;49.890;8.222;2023-05-07T14:14:23;25.50;68.70
2995;DHT22;35277;49.890;8.222;2023-05-07T14:16:51;25.50;68.70
2995;DHT22;35277;49.890;8.222;2023-05-07T14:19:19;25.50;68.70
2995;DHT22;35277;49.890;8.222;2023-05-07T14:21:49;25.50;68.70
2995;DHT22;35277;49.890;8.222;2023-05-07T14:24:16;25.50;68.70
2995;DHT22;35277;49.890;8.222;2023-05-07T14:27:01;25.50;68.80
2995;DHT22;35277;49.890;8.222;2023-05-07T14:29:29;25.50;68.80
2995;DHT22;35277;49.890;8.222;2023-05-07T14:31:57;25.50;68.80
2995;DHT22;35277;49.890;8.222;2023-05-07T14:34:25;25.50;68.80
2995;DHT22;35277;49.890;8.222;2023-05-07T14:36:52;25.50;68.80
2995;DHT22;35277;49.890;8.222;2023-05-07T14:39:20;25.50;68.70
2995;DHT22;35277;49.890;8.222;2023-05-07T14:41:48;25.40;68.60
2995;DHT22;35277;49.890;8.222;2023-05-07T14:44:17;25.50;68.60
2995;DHT22;35277;49.890;8.222;2023-05-07T14:46:45;25.50;68.60
2995;DHT22;35277;49.890;8.222;2023-05-07T14:49:14;25.50;68.60
2995;DHT22;35277;49.890;8.222;2023-05-07T14:51:44;25.40;68.50
2995;DHT22;35277;49.890;8.222;2023-05-07T14:54:12;25.50;68.60
2995;DHT22;35277;49.890;8.222;2023-05-07T14:56:41;25.40;68.50
2995;DHT22;35277;49.890;8.222;2023-05-07T14:59:09;25.40;68.50
2995;DHT22;35277;49.890;8.222;2023-05-07T15:01:38;25.50;68.60
2995;DHT22;35277;49.890;8.222;2023-05-07T15:04:09;25.40;68.50
2995;DHT22;35277;49.890;8.222;2023-05-07T15:06:37;25.40;68.50
2995;DHT22;35277;49.890;8.222;2023-05-07T15:09:05;25.40;68.50
2995;DHT22;35277;49.890;8.222;2023-05-07T15:11:33;25.40;68.50
2995;DHT22;35277;49.890;8.222;2023-05-07T15:14:02;25.40;68.50
2995;DHT22;35277;49.890;8.222;2023-05-07T15:16:30;25.40;68.50
2995;DHT22;35277;49.890;8.222;2023-05-07T15:19:00;25.40;68.50
2995;DHT22;35277;49.890;8.222;2023-05-07T15:21:28;25.40;68.50
2995;DHT22;35277;49.890;8.222;2023-05-07T15:23:57;25.40;68.50
2995;DHT22;35277;49.890;8.222;2023-05-07T15:26:25;25.40;68.60
2995;DHT22;35277;49.890;8.222;2023-05-07T15:28:53;25.40;68.60
2995;DHT22;35277;49.890;8.222;2023-05-07T15:31:23;25.40;68.60
2995;DHT22;35277;49.890;8.222;2023-05-07T15:33:52;25.40;68.60
2995;DHT22;35277;49.890;8.222;2023-05-07T15:36:21;25.40;68.60
2995;DHT22;35277;49.890;8.222;2023-05-07T15:38:49;25.40;68.60
2995;DHT22;35277;49.890;8.222;2023-05-07T15:41:17;25.40;68.60
2995;DHT22;35277;49.890;8.222;2023-05-07T15:43:46;25.40;68.60
2995;DHT22;35277;49.890;8.222;2023-05-07T15:46:17;25.30;68.60
2995;DHT22;35277;49.890;8.222;2023-05-07T15:48:45;25.40;68.70
2995;DHT22;35277;49.890;8.222;2023-05-07T15:51:13;25.30;68.60
2995;DHT22;35277;49.890;8.222;2023-05-07T15:53:42;25.40;68.70
2995;DHT22;35277;49.890;8.222;2023-05-07T15:56:10;25.30;68.60
2995;DHT22;35277;49.890;8.222;2023-05-07T15:58:38;25.40;68.70
2995;DHT22;35277;49.890;8.222;2023-05-07T16:01:06;25.30;68.60
2995;DHT22;35277;49.890;8.222;2023-05-07T16:03:34;25.40;68.70
2995;DHT22;35277;49.890;8.222;2023-05-07T16:06:02;25.30;68.70